createdAt,value
2022-09-20T00:01:33.140Z,16.75
2022-09-20T00:04:36.285Z,14.75
2022-09-20T00:07:38.580Z,13.25
2022-09-20T00:10:40.864Z,16.25
2022-09-20T00:13:45.457Z,13.00
2022-09-20T00:16:47.596Z,14.00
2022-09-20T00:19:49.874Z,13.50
2022-09-20T00:22:51.942Z,14.00
2022-09-20T00:25:59.057Z,13.75
2022-09-20T00:29:01.462Z,14.00
2022-09-20T00:32:03.964Z,11.00
2022-09-20T00:35:10.792Z,13.25
2022-09-20T00:38:14.005Z,13.75
2022-09-20T00:41:16.289Z,13.00
2022-09-20T00:44:56.091Z,13.75
2022-09-20T00:48:19.713Z,11.50
2022-09-20T00:51:29.095Z,14.00
2022-09-20T00:54:32.235Z,14.75
2022-09-20T00:57:36.402Z,13.25
2022-09-20T01:00:39.536Z,10.75
2022-09-20T01:03:42.531Z,10.75
2022-09-20T01:06:46.103Z,10.50
2022-09-20T01:09:48.938Z,10.00
2022-09-20T01:12:52.424Z,11.00
2022-09-20T01:15:56.370Z,10.00
2022-09-20T01:19:01.263Z,9.00
2022-09-20T01:22:09.788Z,10.00
2022-09-20T01:25:30.482Z,11.25
2022-09-20T01:28:33.687Z,9.25
2022-09-20T01:31:42.567Z,10.75
2022-09-20T01:34:53.030Z,11.25
2022-09-20T01:38:23.961Z,8.75
2022-09-20T01:41:41.209Z,10.00
2022-09-20T01:45:01.032Z,9.00
2022-09-20T01:48:18.377Z,10.00
2022-09-20T01:51:45.321Z,11.75
2022-09-20T01:55:09.236Z,12.50
2022-09-20T01:58:41.534Z,9.50
2022-09-20T02:02:35.124Z,10.25
2022-09-20T02:06:06.267Z,11.00
2022-09-20T02:09:36.890Z,10.00
2022-09-20T02:13:20.934Z,12.75
2022-09-20T02:16:29.310Z,10.00
2022-09-20T02:19:34.100Z,10.00
2022-09-20T02:22:39.292Z,13.00
2022-09-20T02:26:11.177Z,11.75
2022-09-20T02:29:31.164Z,10.75
2022-09-20T02:32:57.917Z,12.50
2022-09-20T02:36:29.552Z,12.00
2022-09-20T02:39:39.508Z,14.00
2022-09-20T02:42:48.267Z,14.50
2022-09-20T02:46:09.125Z,12.50
2022-09-20T02:49:21.019Z,10.75
2022-09-20T02:52:41.952Z,13.25
2022-09-20T02:56:02.502Z,14.75
2022-09-20T02:59:22.858Z,14.00
2022-09-20T03:02:30.842Z,14.25
2022-09-20T03:05:58.759Z,15.75
2022-09-20T03:09:19.864Z,18.00
2022-09-20T03:12:59.126Z,14.00
2022-09-20T03:16:17.004Z,16.25
2022-09-20T03:19:56.902Z,14.25
2022-09-20T03:23:20.808Z,15.00
2022-09-20T03:27:07.644Z,14.50
2022-09-20T03:30:47.459Z,14.50
2022-09-20T03:34:40.595Z,13.75
2022-09-20T03:38:01.397Z,17.00
2022-09-20T03:41:24.521Z,16.00
2022-09-20T03:44:45.712Z,15.00
2022-09-20T03:48:06.265Z,14.50
2022-09-20T03:51:45.844Z,14.00
2022-09-20T03:54:50.844Z,14.25
2022-09-20T03:58:30.402Z,14.00
2022-09-20T04:01:57.354Z,13.75
2022-09-20T04:05:04.302Z,15.00
2022-09-20T04:08:45.462Z,15.00
2022-09-20T04:11:56.286Z,16.50
2022-09-20T04:15:31.533Z,13.50
2022-09-20T04:18:56.637Z,11.50
2022-09-20T04:22:00.190Z,12.25
2022-09-20T04:25:16.115Z,15.00
2022-09-20T04:28:31.155Z,11.25
2022-09-20T04:31:39.490Z,14.00
2022-09-20T04:35:16.669Z,11.25
2022-09-20T04:38:20.735Z,12.50
2022-09-20T04:42:01.115Z,11.00
2022-09-20T04:45:31.476Z,11.00
2022-09-20T04:48:52.294Z,10.75
2022-09-20T04:52:31.693Z,10.75
2022-09-20T04:55:46.501Z,9.00
2022-09-20T04:59:15.041Z,9.00
2022-09-20T05:02:26.016Z,10.00
2022-09-20T05:05:53.072Z,9.00
2022-09-20T05:09:07.020Z,9.00
2022-09-20T05:12:40.112Z,8.75
2022-09-20T05:15:57.873Z,8.25
2022-09-20T05:19:06.776Z,10.00
2022-09-20T05:22:47.380Z,8.00
2022-09-20T05:26:03.211Z,9.00
2022-09-20T05:29:20.900Z,10.00
2022-09-20T05:32:38.466Z,10.50
2022-09-20T05:36:03.375Z,10.75
2022-09-20T05:39:31.829Z,10.00
2022-09-20T05:42:47.231Z,10.00
2022-09-20T05:46:14.476Z,10.50
2022-09-20T05:49:19.959Z,11.00
2022-09-20T05:52:34.939Z,12.00
2022-09-20T05:55:49.513Z,12.00
2022-09-20T05:59:08.138Z,13.75
2022-09-20T06:02:21.630Z,13.50
2022-09-20T06:05:55.982Z,12.00
2022-09-20T06:09:03.969Z,10.75
2022-09-20T06:12:26.111Z,12.25
2022-09-20T06:15:49.860Z,12.75
2022-09-20T06:19:18.214Z,12.25
2022-09-20T06:22:27.910Z,15.00
2022-09-20T06:25:48.606Z,14.75
2022-09-20T06:28:58.132Z,14.00
2022-09-20T06:32:00.948Z,15.50
2022-09-20T06:35:04.331Z,15.25
2022-09-20T06:38:35.223Z,14.00
2022-09-20T06:41:37.493Z,15.00
2022-09-20T06:44:41.358Z,17.00
2022-09-20T06:47:43.376Z,17.00
2022-09-20T06:50:45.841Z,17.00
2022-09-20T06:53:48.414Z,16.00
2022-09-20T06:56:51.364Z,15.75
2022-09-20T06:59:53.424Z,9.75
2022-09-20T07:02:56.794Z,15.00
2022-09-20T07:06:00.600Z,13.25
2022-09-20T07:09:03.003Z,15.50
2022-09-20T07:12:05.184Z,16.25
2022-09-20T07:15:08.425Z,15.50
2022-09-20T07:18:10.492Z,13.00
2022-09-20T07:21:14.526Z,15.25
2022-09-20T07:24:16.561Z,14.00
2022-09-20T07:27:19.019Z,13.00
2022-09-20T07:30:21.660Z,16.00
2022-09-20T07:33:25.083Z,13.00
2022-09-20T07:36:27.113Z,12.50
2022-09-20T07:39:29.577Z,13.00
2022-09-20T07:42:31.953Z,13.00
2022-09-20T07:45:39.107Z,12.00
2022-09-20T07:48:41.931Z,12.25
2022-09-20T07:51:44.601Z,11.75
2022-09-20T07:54:47.284Z,12.25
2022-09-20T07:57:49.598Z,13.00
2022-09-20T08:00:56.069Z,11.00
2022-09-20T08:03:58.320Z,12.50
2022-09-20T08:07:01.566Z,14.50
2022-09-20T08:10:04.538Z,15.00
2022-09-20T08:16:31.697Z,14.00
2022-09-20T08:19:33.713Z,13.50
2022-09-20T08:22:35.975Z,14.25
2022-09-20T08:25:39.512Z,15.25
2022-09-20T08:28:42.390Z,17.00
2022-09-20T08:31:44.642Z,16.25
2022-09-20T08:34:49.405Z,16.25
2022-09-20T08:37:55.234Z,14.75
2022-09-20T08:41:01.743Z,13.50
2022-09-20T08:44:25.683Z,14.25
2022-09-20T08:47:31.170Z,14.75
2022-09-20T08:50:36.842Z,13.25
2022-09-20T08:53:49.234Z,13.50
2022-09-20T08:56:52.267Z,14.50
2022-09-20T08:59:54.910Z,15.00
2022-09-20T09:02:59.709Z,14.75
2022-09-20T09:06:04.138Z,15.00
2022-09-20T09:09:07.998Z,12.50
2022-09-20T09:12:22.979Z,14.00
2022-09-20T09:15:34.412Z,14.00
2022-09-20T09:18:40.240Z,12.50
2022-09-20T09:21:43.361Z,14.00
2022-09-20T09:24:46.335Z,13.00
2022-09-20T09:28:03.755Z,11.50
2022-09-20T09:31:23.673Z,12.25
2022-09-20T09:34:28.832Z,10.75
2022-09-20T09:37:31.869Z,13.00
2022-09-20T09:40:34.544Z,13.00
2022-09-20T09:43:40.598Z,14.25
2022-09-20T09:46:42.627Z,16.00
2022-09-20T09:50:09.002Z,14.75
2022-09-20T09:53:18.631Z,15.00
2022-09-20T09:56:39.637Z,15.25
2022-09-20T09:59:55.131Z,15.25
2022-09-20T10:03:35.222Z,16.25
2022-09-20T10:06:52.114Z,14.50
2022-09-20T10:10:08.627Z,15.50
2022-09-20T10:13:40.280Z,15.00
2022-09-20T10:17:01.584Z,12.25
2022-09-20T10:20:22.050Z,10.75
2022-09-20T10:24:03.264Z,10.25
2022-09-20T10:27:40.037Z,11.00
2022-09-20T10:30:58.452Z,11.50
2022-09-20T10:34:37.894Z,14.50
2022-09-20T10:38:11.423Z,14.50
2022-09-20T10:42:12.507Z,12.75
2022-09-20T10:46:14.042Z,15.25
2022-09-20T10:49:51.434Z,16.75
2022-09-20T10:53:15.102Z,12.50
2022-09-20T10:56:24.042Z,13.25
2022-09-20T10:59:32.591Z,12.00
2022-09-20T11:03:06.412Z,11.50
2022-09-20T11:06:11.740Z,10.00
2022-09-20T11:09:19.689Z,9.00
2022-09-20T11:12:27.507Z,13.00
2022-09-20T11:15:43.480Z,11.50
2022-09-20T11:18:53.512Z,10.00
2022-09-20T11:22:09.138Z,10.75
2022-09-20T11:25:30.711Z,9.75
2022-09-20T11:28:43.345Z,11.50
2022-09-20T11:31:49.152Z,11.25
2022-09-20T11:34:55.741Z,7.00
2022-09-20T11:38:04.955Z,11.00
2022-09-20T11:41:21.236Z,6.00
2022-09-20T11:44:23.710Z,7.50
2022-09-20T11:47:54.077Z,8.00
2022-09-20T11:51:26.821Z,8.00
2022-09-20T11:54:40.941Z,8.50
2022-09-20T11:57:43.399Z,7.00
2022-09-20T12:00:48.287Z,8.50
2022-09-20T12:04:08.720Z,6.00
2022-09-20T12:07:23.512Z,6.25
2022-09-20T12:10:37.239Z,5.25
2022-09-20T12:13:41.248Z,6.00
2022-09-20T12:16:46.207Z,5.25
2022-09-20T12:19:48.267Z,4.00
2022-09-20T12:22:50.601Z,6.00
2022-09-20T12:26:18.870Z,5.00
2022-09-20T12:29:24.295Z,4.00
2022-09-20T12:32:42.552Z,3.00
2022-09-20T12:36:21.619Z,4.75
2022-09-20T12:39:29.941Z,4.00
2022-09-20T12:42:33.607Z,6.00
2022-09-20T12:45:35.692Z,6.00
2022-09-20T12:48:38.695Z,9.00
2022-09-20T12:51:59.427Z,9.00
2022-09-20T12:55:04.701Z,5.00
2022-09-20T12:58:12.008Z,5.00
2022-09-20T13:01:14.817Z,5.00
2022-09-20T13:05:01.905Z,3.00
2022-09-20T13:08:23.708Z,4.00
2022-09-20T13:11:44.598Z,4.25
2022-09-20T13:14:47.436Z,4.00
2022-09-20T13:17:53.328Z,5.25
2022-09-20T13:20:56.798Z,4.00
2022-09-20T13:23:59.781Z,4.00
2022-09-20T13:27:06.707Z,4.00
2022-09-20T13:30:15.194Z,4.00
2022-09-20T13:33:24.757Z,5.00
2022-09-20T13:36:29.331Z,6.50
2022-09-20T13:39:37.953Z,5.00
2022-09-20T13:42:40.096Z,4.00
2022-09-20T13:45:47.081Z,5.00
2022-09-20T13:48:54.640Z,5.00
2022-09-20T13:51:56.898Z,6.50
2022-09-20T13:54:59.089Z,5.00
2022-09-20T13:58:33.974Z,4.75
2022-09-20T14:01:36.366Z,7.00
2022-09-20T14:04:38.867Z,7.75
2022-09-20T14:07:44.233Z,4.75
2022-09-20T14:10:46.982Z,8.00
2022-09-20T14:13:52.824Z,2.00
2022-09-20T14:16:56.848Z,1.00
2022-09-20T14:19:58.884Z,2.00
2022-09-20T14:23:01.483Z,3.00
2022-09-20T14:26:06.663Z,1.75
2022-09-20T14:29:41.390Z,1.00
2022-09-20T14:32:50.620Z,0.75
2022-09-20T14:35:53.281Z,1.00
2022-09-20T14:39:02.789Z,1.00
2022-09-20T14:42:35.286Z,1.00
2022-09-20T14:45:39.410Z,1.00
2022-09-20T14:48:42.066Z,1.00
2022-09-20T14:51:44.970Z,2.00
2022-09-20T14:54:58.990Z,0.75
2022-09-20T14:58:10.225Z,1.00
2022-09-20T15:01:26.182Z,1.00
2022-09-20T15:04:29.007Z,2.00
2022-09-20T15:07:31.515Z,1.25
2022-09-20T15:10:33.697Z,2.00
2022-09-20T15:13:36.264Z,2.00
2022-09-20T15:16:38.730Z,2.75
2022-09-20T15:19:41.265Z,2.00
2022-09-20T15:22:43.482Z,1.25
2022-09-20T15:25:46.468Z,2.00
2022-09-20T15:28:48.966Z,1.50
2022-09-20T15:31:51.641Z,1.75
2022-09-20T15:34:53.922Z,2.00
2022-09-20T15:37:56.309Z,2.75
2022-09-20T15:41:01.178Z,2.00
2022-09-20T15:44:04.940Z,2.00
2022-09-20T15:47:07.956Z,2.00
2022-09-20T15:50:11.049Z,4.00
2022-09-20T15:53:13.272Z,4.00
2022-09-20T15:56:18.613Z,4.00
2022-09-20T15:59:23.238Z,4.00
2022-09-20T16:02:25.958Z,4.00
2022-09-20T16:05:28.029Z,3.50
2022-09-20T16:08:38.491Z,3.00
2022-09-20T16:11:41.043Z,3.25
2022-09-20T16:14:43.523Z,3.00
2022-09-20T16:18:04.460Z,4.00
2022-09-20T16:21:12.502Z,3.00
2022-09-20T16:24:15.049Z,4.00
2022-09-20T16:27:18.419Z,4.50
2022-09-20T16:30:20.959Z,6.00
2022-09-20T16:33:23.658Z,7.00
2022-09-20T16:36:27.576Z,5.25
2022-09-20T16:39:30.966Z,7.00
2022-09-20T16:42:33.463Z,5.25
2022-09-20T16:45:36.512Z,4.00
2022-09-20T16:48:38.762Z,2.25
2022-09-20T16:51:42.769Z,7.00
2022-09-20T16:54:45.038Z,6.00
2022-09-20T16:57:52.057Z,6.00
2022-09-20T17:00:55.078Z,6.25
2022-09-20T17:03:58.395Z,5.75
2022-09-20T17:07:00.870Z,6.00
2022-09-20T17:10:03.326Z,6.00
2022-09-20T17:13:07.563Z,3.00
2022-09-20T17:16:16.838Z,4.00
2022-09-20T17:19:20.694Z,7.00
2022-09-20T17:22:23.912Z,7.00
2022-09-20T17:25:30.233Z,2.00
2022-09-20T17:28:37.638Z,9.00
2022-09-20T17:31:42.030Z,9.00
2022-09-20T17:34:44.507Z,14.75
2022-09-20T17:37:46.654Z,16.75
2022-09-20T17:40:58.787Z,13.75
2022-09-20T17:44:02.843Z,13.25
2022-09-20T17:47:06.323Z,13.00
2022-09-20T17:50:14.965Z,13.75
2022-09-20T17:53:17.547Z,12.75
2022-09-20T17:56:23.252Z,17.25
2022-09-20T17:59:25.760Z,15.50
2022-09-20T18:02:28.110Z,15.25
2022-09-20T18:05:30.450Z,15.00
2022-09-20T18:08:32.604Z,16.25
2022-09-20T18:11:37.841Z,14.00
2022-09-20T18:14:40.402Z,16.00
2022-09-20T18:17:42.947Z,13.75
2022-09-20T18:20:45.266Z,14.00
2022-09-20T18:23:48.566Z,15.00
2022-09-20T18:26:50.727Z,16.00
2022-09-20T18:29:53.572Z,15.25
2022-09-20T18:32:55.681Z,12.25
2022-09-20T18:36:05.790Z,14.00
2022-09-20T18:39:09.436Z,12.75
2022-09-20T18:42:11.882Z,13.00
2022-09-20T18:45:14.463Z,11.50
2022-09-20T18:48:17.091Z,11.50
2022-09-20T18:51:19.812Z,11.75
2022-09-20T18:54:23.201Z,13.00
2022-09-20T18:57:28.097Z,12.00
2022-09-20T19:00:30.788Z,12.00
2022-09-20T19:03:45.453Z,13.75
2022-09-20T19:07:14.555Z,11.00
2022-09-20T19:10:58.338Z,12.00
2022-09-20T19:14:32.164Z,10.00
2022-09-20T19:18:01.330Z,12.50
2022-09-20T19:21:10.620Z,12.75
2022-09-20T19:24:56.709Z,14.75
2022-09-20T19:27:59.143Z,14.75
2022-09-20T19:31:03.350Z,16.00
2022-09-20T19:34:24.538Z,13.00
2022-09-20T19:37:48.197Z,15.75
2022-09-20T19:41:26.584Z,13.00
2022-09-20T19:44:47.922Z,15.00
2022-09-20T19:48:09.301Z,13.00
2022-09-20T19:51:12.608Z,12.50
2022-09-20T19:54:15.326Z,10.00
2022-09-20T19:57:23.666Z,11.75
2022-09-20T20:00:26.543Z,11.00
2022-09-20T20:03:30.051Z,12.00
2022-09-20T20:06:51.259Z,12.75
2022-09-20T20:10:11.993Z,10.00
2022-09-20T20:13:57.656Z,12.00
2022-09-20T20:17:15.659Z,11.75
2022-09-20T20:20:49.512Z,11.00
2022-09-20T20:24:07.499Z,11.50
2022-09-20T20:27:09.901Z,11.00
2022-09-20T20:30:12.289Z,8.50
2022-09-20T20:33:19.376Z,11.00
2022-09-20T20:36:21.873Z,10.00
2022-09-20T20:39:24.216Z,8.25
2022-09-20T20:42:27.367Z,9.00
2022-09-20T20:45:30.210Z,9.75
2022-09-20T20:48:32.644Z,10.00
2022-09-20T20:51:34.972Z,8.25
2022-09-20T20:54:37.464Z,8.25
2022-09-20T20:57:39.750Z,9.00
2022-09-20T21:00:41.795Z,7.00
2022-09-20T21:03:47.430Z,7.00
2022-09-20T21:06:50.479Z,7.75
2022-09-20T21:09:52.738Z,9.00
2022-09-20T21:12:54.998Z,9.00
2022-09-20T21:16:05.669Z,8.75
2022-09-20T21:19:09.669Z,8.50
2022-09-20T21:22:11.935Z,10.50
2022-09-20T21:25:14.114Z,9.00
2022-09-20T21:28:16.517Z,9.50
2022-09-20T21:31:19.852Z,11.25
2022-09-20T21:34:22.211Z,9.50
2022-09-20T21:37:24.287Z,10.00
2022-09-20T21:40:26.611Z,9.50
2022-09-20T21:43:28.787Z,10.50
2022-09-20T21:46:33.551Z,5.00
2022-09-20T21:49:35.975Z,10.00
2022-09-20T21:52:38.284Z,9.50
2022-09-20T21:55:40.238Z,9.25
2022-09-20T21:58:42.526Z,9.50
2022-09-20T22:01:44.858Z,10.25
2022-09-20T22:04:47.096Z,7.00
2022-09-20T22:07:49.112Z,10.00
2022-09-20T22:10:57.668Z,9.00
2022-09-20T22:14:00.122Z,9.50
2022-09-20T22:17:02.362Z,9.25
2022-09-20T22:20:04.765Z,10.75
2022-09-20T22:23:07.232Z,9.75
2022-09-20T22:26:15.224Z,9.00
2022-09-20T22:29:18.277Z,10.25
2022-09-20T22:32:20.765Z,7.00
2022-09-20T22:35:23.121Z,9.25
2022-09-20T22:38:25.228Z,10.00
2022-09-20T22:41:30.303Z,10.00
2022-09-20T22:44:32.382Z,9.50
2022-09-20T22:47:34.656Z,10.00
2022-09-20T22:50:36.635Z,8.00
2022-09-20T22:53:39.267Z,8.00
2022-09-20T22:56:42.443Z,8.50
2022-09-20T22:59:44.729Z,9.50
2022-09-20T23:02:46.772Z,12.25
2022-09-20T23:05:49.038Z,9.50
2022-09-20T23:08:53.076Z,10.25
2022-09-20T23:11:55.953Z,9.50
2022-09-20T23:14:57.960Z,10.75
2022-09-20T23:18:00.160Z,9.00
2022-09-20T23:21:02.170Z,9.50
2022-09-20T23:24:06.922Z,10.00
2022-09-20T23:27:08.989Z,9.75
2022-09-20T23:30:11.556Z,9.75
2022-09-20T23:33:13.591Z,9.00
2022-09-20T23:36:16.924Z,10.25
2022-09-20T23:39:18.940Z,10.00
2022-09-20T23:42:21.257Z,10.50
2022-09-20T23:45:23.255Z,10.50
2022-09-20T23:48:25.871Z,9.75
2022-09-20T23:51:29.052Z,10.00
2022-09-20T23:54:31.474Z,11.00
2022-09-20T23:57:33.485Z,15.00
